sensor_id;sensor_type;location;lat;lon;timestamp;P1;durP1;ratioP1;P2;durP2;ratioP2
40827;SDS011;26549;50.918;5.338;2024-02-21T00:01:53;23.25;;;8.88;;
40827;SDS011;26549;50.918;5.338;2024-02-21T00:04:19;21.00;;;8.25;;
40827;SDS011;26549;50.918;5.338;2024-02-21T00:06:45;16.45;;;8.50;;
40827;SDS011;26549;50.918;5.338;2024-02-21T00:09:11;18.40;;;7.68;;
40827;SDS011;26549;50.918;5.338;2024-02-21T00:11:39;17.98;;;7.68;;
40827;SDS011;26549;50.918;5.338;2024-02-21T00:14:05;17.25;;;7.47;;
40827;SDS011;26549;50.918;5.338;2024-02-21T00:16:31;15.98;;;6.80;;
40827;SDS011;26549;50.918;5.338;2024-02-21T00:18:57;14.82;;;7.88;;
40827;SDS011;26549;50.918;5.338;2024-02-21T00:21:24;15.05;;;7.82;;
40827;SDS011;26549;50.918;5.338;2024-02-21T00:23:50;15.50;;;7.13;;
40827;SDS011;26549;50.918;5.338;2024-02-21T00:26:16;12.15;;;6.80;;
40827;SDS011;26549;50.918;5.338;2024-02-21T00:28:42;14.98;;;6.97;;
40827;SDS011;26549;50.918;5.338;2024-02-21T00:31:08;19.13;;;7.88;;
40827;SDS011;26549;50.918;5.338;2024-02-21T00:33:34;14.98;;;7.53;;
40827;SDS011;26549;50.918;5.338;2024-02-21T00:35:59;14.73;;;7.75;;
40827;SDS011;26549;50.918;5.338;2024-02-21T00:38:25;19.40;;;7.63;;
40827;SDS011;26549;50.918;5.338;2024-02-21T00:40:51;15.98;;;7.57;;
40827;SDS011;26549;50.918;5.338;2024-02-21T00:43:17;13.73;;;7.70;;
40827;SDS011;26549;50.918;5.338;2024-02-21T00:45:43;16.48;;;7.72;;
40827;SDS011;26549;50.918;5.338;2024-02-21T00:48:09;15.02;;;6.70;;
40827;SDS011;26549;50.918;5.338;2024-02-21T00:50:37;25.13;;;7.25;;
40827;SDS011;26549;50.918;5.338;2024-02-21T00:53:03;15.50;;;8.27;;
40827;SDS011;26549;50.918;5.338;2024-02-21T00:55:29;16.85;;;7.40;;
40827;SDS011;26549;50.918;5.338;2024-02-21T00:57:55;14.48;;;6.95;;
40827;SDS011;26549;50.918;5.338;2024-02-21T01:00:22;18.23;;;7.00;;
40827;SDS011;26549;50.918;5.338;2024-02-21T01:02:49;23.58;;;7.57;;
40827;SDS011;26549;50.918;5.338;2024-02-21T01:05:15;16.35;;;6.18;;
40827;SDS011;26549;50.918;5.338;2024-02-21T01:07:41;17.63;;;8.25;;
40827;SDS011;26549;50.918;5.338;2024-02-21T01:10:07;15.68;;;6.55;;
40827;SDS011;26549;50.918;5.338;2024-02-21T01:12:33;12.98;;;5.70;;
40827;SDS011;26549;50.918;5.338;2024-02-21T01:14:59;17.75;;;6.63;;
40827;SDS011;26549;50.918;5.338;2024-02-21T01:17:25;16.02;;;6.35;;
40827;SDS011;26549;50.918;5.338;2024-02-21T01:19:51;14.70;;;6.13;;
40827;SDS011;26549;50.918;5.338;2024-02-21T01:22:17;12.82;;;5.82;;
40827;SDS011;26549;50.918;5.338;2024-02-21T01:24:43;15.32;;;6.63;;
40827;SDS011;26549;50.918;5.338;2024-02-21T01:27:09;12.55;;;5.75;;
40827;SDS011;26549;50.918;5.338;2024-02-21T01:29:35;12.40;;;5.55;;
40827;SDS011;26549;50.918;5.338;2024-02-21T01:32:01;11.20;;;6.22;;
40827;SDS011;26549;50.918;5.338;2024-02-21T01:34:27;14.20;;;6.72;;
40827;SDS011;26549;50.918;5.338;2024-02-21T01:36:53;13.00;;;6.53;;
40827;SDS011;26549;50.918;5.338;2024-02-21T01:39:19;14.27;;;6.70;;
40827;SDS011;26549;50.918;5.338;2024-02-21T01:41:45;14.63;;;6.05;;
40827;SDS011;26549;50.918;5.338;2024-02-21T01:44:11;12.63;;;6.43;;
40827;SDS011;26549;50.918;5.338;2024-02-21T01:46:37;14.07;;;6.72;;
40827;SDS011;26549;50.918;5.338;2024-02-21T01:49:03;20.95;;;6.38;;
40827;SDS011;26549;50.918;5.338;2024-02-21T01:51:30;17.00;;;6.10;;
40827;SDS011;26549;50.918;5.338;2024-02-21T01:53:56;12.02;;;5.05;;
40827;SDS011;26549;50.918;5.338;2024-02-21T01:56:23;18.17;;;7.43;;
40827;SDS011;26549;50.918;5.338;2024-02-21T01:58:49;12.63;;;6.18;;
40827;SDS011;26549;50.918;5.338;2024-02-21T02:01:16;11.60;;;6.25;;
40827;SDS011;26549;50.918;5.338;2024-02-21T02:03:44;17.20;;;5.53;;
40827;SDS011;26549;50.918;5.338;2024-02-21T02:06:13;12.18;;;5.85;;
40827;SDS011;26549;50.918;5.338;2024-02-21T02:08:40;9.73;;;4.70;;
40827;SDS011;26549;50.918;5.338;2024-02-21T02:11:06;14.40;;;6.28;;
40827;SDS011;26549;50.918;5.338;2024-02-21T02:13:32;11.63;;;5.45;;
40827;SDS011;26549;50.918;5.338;2024-02-21T02:15:58;10.65;;;5.40;;
40827;SDS011;26549;50.918;5.338;2024-02-21T02:18:23;13.20;;;6.10;;
40827;SDS011;26549;50.918;5.338;2024-02-21T02:20:49;11.27;;;5.15;;
40827;SDS011;26549;50.918;5.338;2024-02-21T02:23:24;15.55;;;6.45;;
40827;SDS011;26549;50.918;5.338;2024-02-21T02:25:52;11.88;;;5.50;;
40827;SDS011;26549;50.918;5.338;2024-02-21T02:28:18;12.82;;;5.55;;
40827;SDS011;26549;50.918;5.338;2024-02-21T02:30:44;12.25;;;5.28;;
40827;SDS011;26549;50.918;5.338;2024-02-21T02:33:12;11.30;;;5.88;;
40827;SDS011;26549;50.918;5.338;2024-02-21T02:35:38;14.95;;;5.32;;
40827;SDS011;26549;50.918;5.338;2024-02-21T02:38:04;15.32;;;6.15;;
40827;SDS011;26549;50.918;5.338;2024-02-21T02:40:34;13.13;;;5.60;;
40827;SDS011;26549;50.918;5.338;2024-02-21T02:43:01;9.88;;;4.97;;
40827;SDS011;26549;50.918;5.338;2024-02-21T02:45:27;12.90;;;5.18;;
40827;SDS011;26549;50.918;5.338;2024-02-21T02:47:53;11.50;;;5.28;;
40827;SDS011;26549;50.918;5.338;2024-02-21T02:50:28;12.45;;;5.43;;
40827;SDS011;26549;50.918;5.338;2024-02-21T02:52:54;10.13;;;4.50;;
40827;SDS011;26549;50.918;5.338;2024-02-21T02:55:20;12.25;;;5.35;;
40827;SDS011;26549;50.918;5.338;2024-02-21T02:57:46;13.60;;;4.60;;
40827;SDS011;26549;50.918;5.338;2024-02-21T03:00:13;12.55;;;4.80;;
40827;SDS011;26549;50.918;5.338;2024-02-21T03:02:40;13.60;;;7.00;;
40827;SDS011;26549;50.918;5.338;2024-02-21T03:05:15;8.82;;;4.78;;
40827;SDS011;26549;50.918;5.338;2024-02-21T03:07:42;9.55;;;5.43;;
40827;SDS011;26549;50.918;5.338;2024-02-21T03:10:09;10.40;;;6.38;;
40827;SDS011;26549;50.918;5.338;2024-02-21T03:12:35;13.10;;;4.93;;
40827;SDS011;26549;50.918;5.338;2024-02-21T03:15:02;14.00;;;5.25;;
40827;SDS011;26549;50.918;5.338;2024-02-21T03:17:28;10.52;;;5.20;;
40827;SDS011;26549;50.918;5.338;2024-02-21T03:19:54;8.07;;;5.72;;
40827;SDS011;26549;50.918;5.338;2024-02-21T03:22:21;20.25;;;5.57;;
40827;SDS011;26549;50.918;5.338;2024-02-21T03:24:47;9.05;;;4.43;;
40827;SDS011;26549;50.918;5.338;2024-02-21T03:27:13;10.07;;;5.13;;
40827;SDS011;26549;50.918;5.338;2024-02-21T03:29:39;13.70;;;5.55;;
40827;SDS011;26549;50.918;5.338;2024-02-21T03:32:05;12.85;;;6.03;;
40827;SDS011;26549;50.918;5.338;2024-02-21T03:34:32;11.35;;;5.05;;
40827;SDS011;26549;50.918;5.338;2024-02-21T03:36:58;8.75;;;4.50;;
40827;SDS011;26549;50.918;5.338;2024-02-21T03:39:25;18.05;;;5.32;;
40827;SDS011;26549;50.918;5.338;2024-02-21T03:41:50;16.38;;;5.00;;
40827;SDS011;26549;50.918;5.338;2024-02-21T03:44:17;12.00;;;4.95;;
40827;SDS011;26549;50.918;5.338;2024-02-21T03:46:43;16.23;;;5.50;;
40827;SDS011;26549;50.918;5.338;2024-02-21T03:49:08;13.52;;;5.72;;
40827;SDS011;26549;50.918;5.338;2024-02-21T03:51:34;11.38;;;4.30;;
40827;SDS011;26549;50.918;5.338;2024-02-21T03:54:00;12.32;;;5.13;;
40827;SDS011;26549;50.918;5.338;2024-02-21T03:56:26;12.65;;;5.03;;
40827;SDS011;26549;50.918;5.338;2024-02-21T03:58:52;12.55;;;5.20;;
40827;SDS011;26549;50.918;5.338;2024-02-21T04:01:18;8.05;;;4.28;;
40827;SDS011;26549;50.918;5.338;2024-02-21T04:03:44;15.23;;;5.25;;
40827;SDS011;26549;50.918;5.338;2024-02-21T04:06:10;16.27;;;6.05;;
40827;SDS011;26549;50.918;5.338;2024-02-21T04:08:37;12.00;;;5.20;;
40827;SDS011;26549;50.918;5.338;2024-02-21T04:11:04;13.38;;;5.25;;
40827;SDS011;26549;50.918;5.338;2024-02-21T04:13:30;11.93;;;5.28;;
40827;SDS011;26549;50.918;5.338;2024-02-21T04:15:56;13.43;;;4.55;;
40827;SDS011;26549;50.918;5.338;2024-02-21T04:18:22;14.00;;;4.35;;
40827;SDS011;26549;50.918;5.338;2024-02-21T04:20:50;19.77;;;5.45;;
40827;SDS011;26549;50.918;5.338;2024-02-21T04:23:17;9.35;;;4.78;;
40827;SDS011;26549;50.918;5.338;2024-02-21T04:25:43;8.75;;;4.22;;
40827;SDS011;26549;50.918;5.338;2024-02-21T04:28:09;10.65;;;5.88;;
40827;SDS011;26549;50.918;5.338;2024-02-21T04:30:35;13.95;;;5.95;;
40827;SDS011;26549;50.918;5.338;2024-02-21T04:33:01;9.75;;;4.13;;
40827;SDS011;26549;50.918;5.338;2024-02-21T04:35:27;7.13;;;4.03;;
40827;SDS011;26549;50.918;5.338;2024-02-21T04:37:54;13.02;;;6.10;;
40827;SDS011;26549;50.918;5.338;2024-02-21T04:40:20;15.52;;;4.82;;
40827;SDS011;26549;50.918;5.338;2024-02-21T04:42:46;15.13;;;4.60;;
40827;SDS011;26549;50.918;5.338;2024-02-21T04:45:13;11.75;;;5.03;;
40827;SDS011;26549;50.918;5.338;2024-02-21T04:47:39;15.07;;;4.82;;
40827;SDS011;26549;50.918;5.338;2024-02-21T04:50:05;11.23;;;4.35;;
40827;SDS011;26549;50.918;5.338;2024-02-21T04:52:31;12.75;;;3.92;;
40827;SDS011;26549;50.918;5.338;2024-02-21T04:54:58;12.35;;;5.43;;
40827;SDS011;26549;50.918;5.338;2024-02-21T04:57:24;11.13;;;4.63;;
40827;SDS011;26549;50.918;5.338;2024-02-21T04:59:51;15.30;;;4.60;;
40827;SDS011;26549;50.918;5.338;2024-02-21T05:02:17;7.60;;;3.90;;
40827;SDS011;26549;50.918;5.338;2024-02-21T05:04:45;10.32;;;4.15;;
40827;SDS011;26549;50.918;5.338;2024-02-21T05:07:11;12.75;;;5.03;;
40827;SDS011;26549;50.918;5.338;2024-02-21T05:09:37;12.85;;;5.03;;
40827;SDS011;26549;50.918;5.338;2024-02-21T05:12:03;10.68;;;5.00;;
40827;SDS011;26549;50.918;5.338;2024-02-21T05:14:29;9.75;;;4.70;;
40827;SDS011;26549;50.918;5.338;2024-02-21T05:16:55;9.10;;;4.10;;
40827;SDS011;26549;50.918;5.338;2024-02-21T05:19:23;9.30;;;4.90;;
40827;SDS011;26549;50.918;5.338;2024-02-21T05:21:49;9.23;;;4.50;;
40827;SDS011;26549;50.918;5.338;2024-02-21T05:24:15;12.50;;;4.47;;
40827;SDS011;26549;50.918;5.338;2024-02-21T05:26:41;8.85;;;5.07;;
40827;SDS011;26549;50.918;5.338;2024-02-21T05:29:07;9.55;;;4.22;;
40827;SDS011;26549;50.918;5.338;2024-02-21T05:34:18;6.28;;;3.63;;
40827;SDS011;26549;50.918;5.338;2024-02-21T05:36:45;8.75;;;4.57;;
40827;SDS011;26549;50.918;5.338;2024-02-21T05:39:12;7.65;;;4.13;;
40827;SDS011;26549;50.918;5.338;2024-02-21T05:41:38;9.63;;;4.30;;
40827;SDS011;26549;50.918;5.338;2024-02-21T05:44:05;7.57;;;4.72;;
40827;SDS011;26549;50.918;5.338;2024-02-21T05:46:31;8.02;;;4.13;;
40827;SDS011;26549;50.918;5.338;2024-02-21T05:48:57;10.05;;;5.57;;
40827;SDS011;26549;50.918;5.338;2024-02-21T05:51:25;7.50;;;4.50;;
40827;SDS011;26549;50.918;5.338;2024-02-21T05:53:50;10.57;;;4.40;;
40827;SDS011;26549;50.918;5.338;2024-02-21T05:56:16;4.75;;;3.70;;
40827;SDS011;26549;50.918;5.338;2024-02-21T05:58:43;6.20;;;3.22;;
40827;SDS011;26549;50.918;5.338;2024-02-21T06:01:09;8.88;;;4.30;;
40827;SDS011;26549;50.918;5.338;2024-02-21T06:03:35;14.85;;;6.05;;
40827;SDS011;26549;50.918;5.338;2024-02-21T06:06:02;8.63;;;3.97;;
40827;SDS011;26549;50.918;5.338;2024-02-21T06:08:28;8.93;;;4.53;;
40827;SDS011;26549;50.918;5.338;2024-02-21T06:10:54;8.77;;;5.00;;
40827;SDS011;26549;50.918;5.338;2024-02-21T06:13:20;10.77;;;4.20;;
40827;SDS011;26549;50.918;5.338;2024-02-21T06:15:47;8.85;;;4.35;;
40827;SDS011;26549;50.918;5.338;2024-02-21T06:18:15;9.13;;;5.43;;
40827;SDS011;26549;50.918;5.338;2024-02-21T06:20:44;11.10;;;5.00;;
40827;SDS011;26549;50.918;5.338;2024-02-21T06:23:15;12.15;;;4.85;;
40827;SDS011;26549;50.918;5.338;2024-02-21T06:25:42;9.43;;;5.57;;
40827;SDS011;26549;50.918;5.338;2024-02-21T06:28:08;13.45;;;6.00;;
40827;SDS011;26549;50.918;5.338;2024-02-21T06:30:35;12.13;;;6.35;;
40827;SDS011;26549;50.918;5.338;2024-02-21T06:33:00;11.70;;;6.28;;
40827;SDS011;26549;50.918;5.338;2024-02-21T06:35:27;12.88;;;6.45;;
40827;SDS011;26549;50.918;5.338;2024-02-21T06:40:23;14.43;;;6.90;;
40827;SDS011;26549;50.918;5.338;2024-02-21T06:42:49;14.23;;;5.80;;
40827;SDS011;26549;50.918;5.338;2024-02-21T06:45:16;10.73;;;5.40;;
40827;SDS011;26549;50.918;5.338;2024-02-21T06:47:42;17.02;;;5.13;;
40827;SDS011;26549;50.918;5.338;2024-02-21T06:50:11;20.60;;;7.57;;
40827;SDS011;26549;50.918;5.338;2024-02-21T06:52:37;11.15;;;5.60;;
40827;SDS011;26549;50.918;5.338;2024-02-21T06:55:04;13.02;;;6.20;;
40827;SDS011;26549;50.918;5.338;2024-02-21T06:57:30;9.02;;;4.40;;
40827;SDS011;26549;50.918;5.338;2024-02-21T06:59:55;11.25;;;3.78;;
40827;SDS011;26549;50.918;5.338;2024-02-21T07:02:21;10.48;;;4.22;;
40827;SDS011;26549;50.918;5.338;2024-02-21T07:04:47;8.27;;;3.45;;
40827;SDS011;26549;50.918;5.338;2024-02-21T07:07:13;12.82;;;4.93;;
40827;SDS011;26549;50.918;5.338;2024-02-21T07:09:45;11.32;;;4.20;;
40827;SDS011;26549;50.918;5.338;2024-02-21T07:12:15;15.20;;;5.10;;
40827;SDS011;26549;50.918;5.338;2024-02-21T07:14:41;9.90;;;4.85;;
40827;SDS011;26549;50.918;5.338;2024-02-21T07:17:07;12.25;;;4.75;;
40827;SDS011;26549;50.918;5.338;2024-02-21T07:19:33;9.50;;;4.45;;
40827;SDS011;26549;50.918;5.338;2024-02-21T07:22:01;5.80;;;4.03;;
40827;SDS011;26549;50.918;5.338;2024-02-21T07:24:27;10.48;;;4.93;;
40827;SDS011;26549;50.918;5.338;2024-02-21T07:26:56;12.30;;;5.40;;
40827;SDS011;26549;50.918;5.338;2024-02-21T07:29:21;10.93;;;4.00;;
40827;SDS011;26549;50.918;5.338;2024-02-21T07:31:48;10.30;;;4.18;;
40827;SDS011;26549;50.918;5.338;2024-02-21T07:34:15;12.63;;;5.03;;
40827;SDS011;26549;50.918;5.338;2024-02-21T07:36:42;9.93;;;5.45;;
40827;SDS011;26549;50.918;5.338;2024-02-21T07:39:09;7.90;;;3.50;;
40827;SDS011;26549;50.918;5.338;2024-02-21T07:44:08;10.48;;;5.10;;
40827;SDS011;26549;50.918;5.338;2024-02-21T07:46:34;6.60;;;3.85;;
40827;SDS011;26549;50.918;5.338;2024-02-21T07:49:01;9.50;;;3.92;;
40827;SDS011;26549;50.918;5.338;2024-02-21T07:51:27;12.93;;;4.75;;
40827;SDS011;26549;50.918;5.338;2024-02-21T07:53:53;6.72;;;4.13;;
40827;SDS011;26549;50.918;5.338;2024-02-21T07:56:22;8.55;;;4.03;;
40827;SDS011;26549;50.918;5.338;2024-02-21T07:58:49;10.25;;;4.68;;
40827;SDS011;26549;50.918;5.338;2024-02-21T08:01:18;9.30;;;3.35;;
40827;SDS011;26549;50.918;5.338;2024-02-21T08:06:15;12.57;;;3.83;;
40827;SDS011;26549;50.918;5.338;2024-02-21T08:08:44;8.45;;;3.63;;
40827;SDS011;26549;50.918;5.338;2024-02-21T08:11:12;8.10;;;4.05;;
40827;SDS011;26549;50.918;5.338;2024-02-21T08:13:39;8.40;;;3.22;;
40827;SDS011;26549;50.918;5.338;2024-02-21T08:16:05;7.32;;;3.13;;
40827;SDS011;26549;50.918;5.338;2024-02-21T08:18:32;8.93;;;4.15;;
40827;SDS011;26549;50.918;5.338;2024-02-21T08:21:03;9.70;;;3.97;;
40827;SDS011;26549;50.918;5.338;2024-02-21T08:23:29;8.07;;;3.50;;
40827;SDS011;26549;50.918;5.338;2024-02-21T08:25:56;10.40;;;4.25;;
40827;SDS011;26549;50.918;5.338;2024-02-21T08:28:21;7.80;;;2.85;;
40827;SDS011;26549;50.918;5.338;2024-02-21T08:30:50;7.97;;;2.92;;
40827;SDS011;26549;50.918;5.338;2024-02-21T08:35:51;8.27;;;3.22;;
40827;SDS011;26549;50.918;5.338;2024-02-21T08:38:18;9.73;;;3.65;;
40827;SDS011;26549;50.918;5.338;2024-02-21T08:40:44;12.10;;;3.88;;
40827;SDS011;26549;50.918;5.338;2024-02-21T08:43:09;12.02;;;3.28;;
40827;SDS011;26549;50.918;5.338;2024-02-21T08:45:37;6.47;;;4.45;;
40827;SDS011;26549;50.918;5.338;2024-02-21T08:48:02;9.60;;;4.15;;
40827;SDS011;26549;50.918;5.338;2024-02-21T08:50:28;7.32;;;2.88;;
40827;SDS011;26549;50.918;5.338;2024-02-21T08:52:54;6.40;;;2.70;;
40827;SDS011;26549;50.918;5.338;2024-02-21T08:55:21;8.65;;;2.97;;
40827;SDS011;26549;50.918;5.338;2024-02-21T08:57:47;7.50;;;3.25;;
40827;SDS011;26549;50.918;5.338;2024-02-21T09:00:13;6.97;;;3.53;;
40827;SDS011;26549;50.918;5.338;2024-02-21T09:02:43;6.63;;;3.17;;
40827;SDS011;26549;50.918;5.338;2024-02-21T09:05:09;12.77;;;4.13;;
40827;SDS011;26549;50.918;5.338;2024-02-21T09:07:34;5.80;;;2.92;;
40827;SDS011;26549;50.918;5.338;2024-02-21T09:10:00;7.38;;;2.60;;
40827;SDS011;26549;50.918;5.338;2024-02-21T09:12:27;9.02;;;2.95;;
40827;SDS011;26549;50.918;5.338;2024-02-21T09:17:24;10.05;;;2.78;;
40827;SDS011;26549;50.918;5.338;2024-02-21T09:19:51;6.40;;;3.03;;
40827;SDS011;26549;50.918;5.338;2024-02-21T09:22:18;9.02;;;4.00;;
40827;SDS011;26549;50.918;5.338;2024-02-21T09:24:46;5.72;;;2.95;;
40827;SDS011;26549;50.918;5.338;2024-02-21T09:27:13;7.18;;;2.47;;
40827;SDS011;26549;50.918;5.338;2024-02-21T09:29:40;6.53;;;3.20;;
40827;SDS011;26549;50.918;5.338;2024-02-21T09:32:08;9.15;;;2.80;;
40827;SDS011;26549;50.918;5.338;2024-02-21T09:34:33;7.22;;;3.20;;
40827;SDS011;26549;50.918;5.338;2024-02-21T09:36:59;3.88;;;2.75;;
40827;SDS011;26549;50.918;5.338;2024-02-21T09:39:25;7.07;;;2.60;;
40827;SDS011;26549;50.918;5.338;2024-02-21T09:41:53;6.63;;;2.72;;
40827;SDS011;26549;50.918;5.338;2024-02-21T09:44:22;8.70;;;4.38;;
40827;SDS011;26549;50.918;5.338;2024-02-21T09:52:05;5.88;;;3.00;;
40827;SDS011;26549;50.918;5.338;2024-02-21T09:54:32;8.63;;;3.25;;
40827;SDS011;26549;50.918;5.338;2024-02-21T09:57:02;7.25;;;4.30;;
40827;SDS011;26549;50.918;5.338;2024-02-21T09:59:30;6.65;;;2.85;;
40827;SDS011;26549;50.918;5.338;2024-02-21T10:01:59;5.38;;;3.10;;
40827;SDS011;26549;50.918;5.338;2024-02-21T10:04:28;8.57;;;3.00;;
40827;SDS011;26549;50.918;5.338;2024-02-21T10:06:54;6.10;;;3.10;;
40827;SDS011;26549;50.918;5.338;2024-02-21T10:09:25;7.40;;;2.60;;
40827;SDS011;26549;50.918;5.338;2024-02-21T10:12:06;5.60;;;2.80;;
40827;SDS011;26549;50.918;5.338;2024-02-21T10:14:33;7.30;;;3.38;;
40827;SDS011;26549;50.918;5.338;2024-02-21T10:16:59;6.25;;;4.00;;
40827;SDS011;26549;50.918;5.338;2024-02-21T10:19:27;6.55;;;3.03;;
40827;SDS011;26549;50.918;5.338;2024-02-21T10:22:08;4.32;;;2.28;;
40827;SDS011;26549;50.918;5.338;2024-02-21T10:24:36;6.70;;;2.50;;
40827;SDS011;26549;50.918;5.338;2024-02-21T10:27:03;3.67;;;2.20;;
40827;SDS011;26549;50.918;5.338;2024-02-21T10:29:37;9.38;;;2.90;;
40827;SDS011;26549;50.918;5.338;2024-02-21T10:32:08;9.10;;;2.35;;
40827;SDS011;26549;50.918;5.338;2024-02-21T10:34:38;5.18;;;2.78;;
40827;SDS011;26549;50.918;5.338;2024-02-21T10:37:10;3.85;;;2.20;;
40827;SDS011;26549;50.918;5.338;2024-02-21T10:39:37;7.82;;;2.58;;
40827;SDS011;26549;50.918;5.338;2024-02-21T10:44:38;7.50;;;3.28;;
40827;SDS011;26549;50.918;5.338;2024-02-21T10:47:10;6.00;;;2.55;;
40827;SDS011;26549;50.918;5.338;2024-02-21T10:49:41;4.28;;;2.70;;
40827;SDS011;26549;50.918;5.338;2024-02-21T10:54:44;9.25;;;3.13;;
40827;SDS011;26549;50.918;5.338;2024-02-21T10:57:12;5.28;;;2.65;;
40827;SDS011;26549;50.918;5.338;2024-02-21T10:59:40;10.30;;;2.72;;
40827;SDS011;26549;50.918;5.338;2024-02-21T11:02:08;4.97;;;2.67;;
40827;SDS011;26549;50.918;5.338;2024-02-21T11:04:33;7.28;;;2.63;;
40827;SDS011;26549;50.918;5.338;2024-02-21T11:07:02;7.53;;;2.53;;
40827;SDS011;26549;50.918;5.338;2024-02-21T11:09:31;6.82;;;2.85;;
40827;SDS011;26549;50.918;5.338;2024-02-21T11:12:02;10.93;;;3.25;;
40827;SDS011;26549;50.918;5.338;2024-02-21T11:14:32;4.68;;;3.20;;
40827;SDS011;26549;50.918;5.338;2024-02-21T11:17:02;5.78;;;2.80;;
40827;SDS011;26549;50.918;5.338;2024-02-21T11:19:29;8.40;;;3.28;;
40827;SDS011;26549;50.918;5.338;2024-02-21T11:21:59;5.10;;;2.65;;
40827;SDS011;26549;50.918;5.338;2024-02-21T11:24:28;5.95;;;3.22;;
40827;SDS011;26549;50.918;5.338;2024-02-21T11:26:55;5.70;;;3.08;;
40827;SDS011;26549;50.918;5.338;2024-02-21T11:29:45;4.63;;;2.90;;
40827;SDS011;26549;50.918;5.338;2024-02-21T11:32:16;8.57;;;3.05;;
40827;SDS011;26549;50.918;5.338;2024-02-21T11:34:59;4.43;;;2.42;;
40827;SDS011;26549;50.918;5.338;2024-02-21T11:37:33;6.97;;;2.38;;
40827;SDS011;26549;50.918;5.338;2024-02-21T11:40:02;10.57;;;3.90;;
40827;SDS011;26549;50.918;5.338;2024-02-21T11:42:29;7.93;;;3.00;;
40827;SDS011;26549;50.918;5.338;2024-02-21T11:44:56;6.75;;;2.83;;
40827;SDS011;26549;50.918;5.338;2024-02-21T11:47:22;4.63;;;2.50;;
40827;SDS011;26549;50.918;5.338;2024-02-21T11:49:49;5.25;;;2.38;;
40827;SDS011;26549;50.918;5.338;2024-02-21T11:52:21;5.20;;;3.13;;
40827;SDS011;26549;50.918;5.338;2024-02-21T11:54:50;5.80;;;2.33;;
40827;SDS011;26549;50.918;5.338;2024-02-21T11:57:17;7.60;;;3.45;;
40827;SDS011;26549;50.918;5.338;2024-02-21T11:59:44;7.82;;;2.83;;
40827;SDS011;26549;50.918;5.338;2024-02-21T12:02:11;10.13;;;2.63;;
40827;SDS011;26549;50.918;5.338;2024-02-21T12:04:37;6.93;;;2.38;;
40827;SDS011;26549;50.918;5.338;2024-02-21T12:07:03;3.40;;;1.63;;
40827;SDS011;26549;50.918;5.338;2024-02-21T12:09:30;6.63;;;2.88;;
40827;SDS011;26549;50.918;5.338;2024-02-21T12:12:03;6.57;;;2.40;;
40827;SDS011;26549;50.918;5.338;2024-02-21T12:14:30;11.63;;;2.90;;
40827;SDS011;26549;50.918;5.338;2024-02-21T12:16:59;4.13;;;2.47;;
40827;SDS011;26549;50.918;5.338;2024-02-21T12:19:28;5.05;;;2.30;;
40827;SDS011;26549;50.918;5.338;2024-02-21T12:21:54;4.18;;;1.80;;
40827;SDS011;26549;50.918;5.338;2024-02-21T12:24:24;2.70;;;1.52;;
40827;SDS011;26549;50.918;5.338;2024-02-21T12:26:55;3.22;;;1.88;;
40827;SDS011;26549;50.918;5.338;2024-02-21T12:29:24;2.90;;;1.85;;
40827;SDS011;26549;50.918;5.338;2024-02-21T12:31:51;5.35;;;2.00;;
40827;SDS011;26549;50.918;5.338;2024-02-21T12:34:18;4.80;;;1.80;;
40827;SDS011;26549;50.918;5.338;2024-02-21T12:36:45;7.20;;;2.78;;
40827;SDS011;26549;50.918;5.338;2024-02-21T12:39:14;3.92;;;2.47;;
40827;SDS011;26549;50.918;5.338;2024-02-21T12:41:39;2.80;;;1.20;;
40827;SDS011;26549;50.918;5.338;2024-02-21T12:44:07;4.57;;;1.50;;
40827;SDS011;26549;50.918;5.338;2024-02-21T12:46:33;4.65;;;1.92;;
40827;SDS011;26549;50.918;5.338;2024-02-21T12:49:00;1.60;;;1.13;;
40827;SDS011;26549;50.918;5.338;2024-02-21T12:51:27;4.45;;;1.52;;
40827;SDS011;26549;50.918;5.338;2024-02-21T12:53:53;4.50;;;1.60;;
40827;SDS011;26549;50.918;5.338;2024-02-21T12:56:19;3.58;;;1.63;;
40827;SDS011;26549;50.918;5.338;2024-02-21T12:58:45;3.22;;;1.60;;
40827;SDS011;26549;50.918;5.338;2024-02-21T13:01:11;4.05;;;1.48;;
40827;SDS011;26549;50.918;5.338;2024-02-21T13:03:37;4.07;;;1.90;;
40827;SDS011;26549;50.918;5.338;2024-02-21T13:06:03;2.47;;;1.92;;
40827;SDS011;26549;50.918;5.338;2024-02-21T13:08:30;4.28;;;2.38;;
40827;SDS011;26549;50.918;5.338;2024-02-21T13:10:56;3.70;;;2.03;;
40827;SDS011;26549;50.918;5.338;2024-02-21T13:13:22;3.50;;;1.40;;
40827;SDS011;26549;50.918;5.338;2024-02-21T13:15:49;3.15;;;1.40;;
40827;SDS011;26549;50.918;5.338;2024-02-21T13:18:14;6.13;;;1.58;;
40827;SDS011;26549;50.918;5.338;2024-02-21T13:20:40;3.83;;;1.50;;
40827;SDS011;26549;50.918;5.338;2024-02-21T13:23:06;5.50;;;1.75;;
40827;SDS011;26549;50.918;5.338;2024-02-21T13:25:32;6.18;;;1.50;;
40827;SDS011;26549;50.918;5.338;2024-02-21T13:27:58;3.88;;;2.00;;
40827;SDS011;26549;50.918;5.338;2024-02-21T13:30:24;3.83;;;1.70;;
40827;SDS011;26549;50.918;5.338;2024-02-21T13:32:51;1.80;;;1.33;;
40827;SDS011;26549;50.918;5.338;2024-02-21T13:35:17;3.75;;;1.70;;
40827;SDS011;26549;50.918;5.338;2024-02-21T13:37:43;3.70;;;1.65;;
40827;SDS011;26549;50.918;5.338;2024-02-21T13:40:09;2.17;;;1.40;;
40827;SDS011;26549;50.918;5.338;2024-02-21T13:42:35;6.40;;;1.63;;
40827;SDS011;26549;50.918;5.338;2024-02-21T13:45:01;2.97;;;1.30;;
40827;SDS011;26549;50.918;5.338;2024-02-21T13:47:28;2.83;;;1.10;;
40827;SDS011;26549;50.918;5.338;2024-02-21T13:49:54;3.03;;;1.50;;
40827;SDS011;26549;50.918;5.338;2024-02-21T13:52:20;2.72;;;1.52;;
40827;SDS011;26549;50.918;5.338;2024-02-21T13:54:46;2.72;;;1.40;;
40827;SDS011;26549;50.918;5.338;2024-02-21T13:57:14;2.78;;;1.20;;
40827;SDS011;26549;50.918;5.338;2024-02-21T13:59:39;5.72;;;1.40;;
40827;SDS011;26549;50.918;5.338;2024-02-21T14:02:06;8.63;;;2.45;;
40827;SDS011;26549;50.918;5.338;2024-02-21T14:04:35;3.67;;;1.17;;
40827;SDS011;26549;50.918;5.338;2024-02-21T14:07:00;4.55;;;1.67;;
40827;SDS011;26549;50.918;5.338;2024-02-21T14:09:27;2.15;;;1.35;;
40827;SDS011;26549;50.918;5.338;2024-02-21T14:11:54;4.93;;;1.80;;
40827;SDS011;26549;50.918;5.338;2024-02-21T14:14:20;8.55;;;2.30;;
40827;SDS011;26549;50.918;5.338;2024-02-21T14:16:46;3.17;;;1.45;;
40827;SDS011;26549;50.918;5.338;2024-02-21T14:19:15;7.75;;;1.63;;
40827;SDS011;26549;50.918;5.338;2024-02-21T14:21:40;5.78;;;1.27;;
40827;SDS011;26549;50.918;5.338;2024-02-21T14:24:06;2.95;;;1.20;;
40827;SDS011;26549;50.918;5.338;2024-02-21T14:26:32;7.03;;;1.75;;
40827;SDS011;26549;50.918;5.338;2024-02-21T14:28:58;2.70;;;1.10;;
40827;SDS011;26549;50.918;5.338;2024-02-21T14:31:24;5.65;;;1.75;;
40827;SDS011;26549;50.918;5.338;2024-02-21T14:33:50;4.10;;;1.60;;
40827;SDS011;26549;50.918;5.338;2024-02-21T14:36:16;3.00;;;1.50;;
40827;SDS011;26549;50.918;5.338;2024-02-21T14:38:44;2.85;;;1.55;;
40827;SDS011;26549;50.918;5.338;2024-02-21T14:41:10;6.93;;;2.10;;
40827;SDS011;26549;50.918;5.338;2024-02-21T14:43:39;3.53;;;1.48;;
40827;SDS011;26549;50.918;5.338;2024-02-21T14:46:05;4.85;;;1.60;;
40827;SDS011;26549;50.918;5.338;2024-02-21T14:48:34;6.10;;;2.22;;
40827;SDS011;26549;50.918;5.338;2024-02-21T14:51:01;3.25;;;1.83;;
40827;SDS011;26549;50.918;5.338;2024-02-21T14:53:27;4.80;;;2.30;;
40827;SDS011;26549;50.918;5.338;2024-02-21T14:55:54;4.60;;;1.60;;
40827;SDS011;26549;50.918;5.338;2024-02-21T14:58:20;5.10;;;1.90;;
40827;SDS011;26549;50.918;5.338;2024-02-21T15:00:46;7.35;;;2.08;;
40827;SDS011;26549;50.918;5.338;2024-02-21T15:03:12;5.63;;;2.25;;
40827;SDS011;26549;50.918;5.338;2024-02-21T15:05:41;5.13;;;1.58;;